createdAt,value
2019-02-05T00:02:16.509Z,79.19
2019-02-05T00:04:46.514Z,79.61
2019-02-05T00:07:16.601Z,79.35
2019-02-05T00:09:46.966Z,79.77
2019-02-05T00:12:16.991Z,80.13
2019-02-05T00:14:47.002Z,80.81
2019-02-05T00:17:17.009Z,81.85
2019-02-05T00:19:47.008Z,82.64
2019-02-05T00:22:17.040Z,83.56
2019-02-05T00:24:47.240Z,83.72
2019-02-05T00:27:17.259Z,83.89
2019-02-05T00:29:47.285Z,83.97
2019-02-05T00:32:17.319Z,84.28
2019-02-05T00:34:47.317Z,85.64
2019-02-05T00:37:17.370Z,85.56
2019-02-05T00:39:47.400Z,86.06
2019-02-05T00:42:17.420Z,85.55
2019-02-05T00:44:47.442Z,85.87
2019-02-05T00:47:17.460Z,86.19
2019-02-05T00:49:47.478Z,85.87
2019-02-05T00:52:17.755Z,86.02
2019-02-05T00:54:47.750Z,85.74
2019-02-05T00:57:17.740Z,86.10
2019-02-05T00:59:47.834Z,86.43
2019-02-05T01:02:17.964Z,87.09
2019-02-05T01:04:48.062Z,87.62
2019-02-05T01:07:18.040Z,88.19
2019-02-05T01:09:48.156Z,88.40
2019-02-05T01:12:19.904Z,88.21
2019-02-05T01:14:51.602Z,88.54
2019-02-05T01:17:21.632Z,89.10
2019-02-05T01:19:52.006Z,90.19
2019-02-05T01:22:22.046Z,90.33
2019-02-05T01:24:52.074Z,90.31
2019-02-05T01:27:22.140Z,90.79
2019-02-05T01:29:52.126Z,90.98
2019-02-05T01:32:22.156Z,90.55
2019-02-05T01:34:52.237Z,91.50
2019-02-05T01:37:22.281Z,90.88
2019-02-05T01:39:52.284Z,91.08
2019-02-05T01:42:22.322Z,91.18
2019-02-05T01:44:53.025Z,91.08
2019-02-05T01:47:23.246Z,90.95
2019-02-05T01:49:53.260Z,91.02
2019-02-05T01:52:23.308Z,90.85
2019-02-05T01:54:53.416Z,90.94
2019-02-05T01:57:23.523Z,91.18
2019-02-05T01:59:54.040Z,91.61
2019-02-05T02:02:24.075Z,91.28
2019-02-05T02:07:29.863Z,91.19
2019-02-05T02:10:00.000Z,90.81
2019-02-05T02:12:30.358Z,91.10
2019-02-05T02:15:00.368Z,91.83
2019-02-05T02:17:30.458Z,91.97
2019-02-05T02:20:00.476Z,91.98
2019-02-05T02:22:30.556Z,91.59
2019-02-05T02:25:00.579Z,91.83
2019-02-05T02:27:30.889Z,91.50
2019-02-05T02:30:00.905Z,91.49
2019-02-05T02:32:31.451Z,91.77
2019-02-05T02:35:01.867Z,91.87
2019-02-05T02:37:32.041Z,92.19
2019-02-05T02:40:03.052Z,91.79
2019-02-05T02:42:33.312Z,91.42
2019-02-05T02:45:03.316Z,91.12
2019-02-05T02:47:33.301Z,91.09
2019-02-05T02:50:03.427Z,91.22
2019-02-05T02:52:33.416Z,90.96
2019-02-05T02:55:03.865Z,91.11
2019-02-05T02:57:33.844Z,91.34
2019-02-05T03:00:04.786Z,91.23
2019-02-05T03:02:34.785Z,91.69
2019-02-05T03:05:07.133Z,91.75
2019-02-05T03:07:37.254Z,91.64
2019-02-05T03:10:10.243Z,91.17
2019-02-05T03:12:40.375Z,91.08
2019-02-05T03:15:10.576Z,91.96
2019-02-05T03:17:40.603Z,92.39
2019-02-05T03:20:11.381Z,91.88
2019-02-05T03:22:44.986Z,92.22
2019-02-05T03:25:13.975Z,92.06
2019-02-05T03:27:44.031Z,91.74
2019-02-05T03:30:16.697Z,92.42
2019-02-05T03:32:46.726Z,91.40
2019-02-05T03:35:16.968Z,91.31
2019-02-05T03:37:47.024Z,91.14
2019-02-05T03:40:54.635Z,91.14
2019-02-05T03:43:24.721Z,91.49
2019-02-05T03:45:54.697Z,91.82
2019-02-05T03:48:25.101Z,92.15
2019-02-05T03:51:00.427Z,91.92
2019-02-05T03:53:32.524Z,91.47
2019-02-05T03:56:37.400Z,91.18
2019-02-05T03:59:23.981Z,91.85
2019-02-05T04:02:26.438Z,91.53
2019-02-05T04:05:20.413Z,91.16
2019-02-05T04:08:19.925Z,91.18
2019-02-05T04:11:55.621Z,91.47
2019-02-05T04:15:03.398Z,91.50
2019-02-05T04:18:17.287Z,91.91
2019-02-05T04:21:14.401Z,92.03
2019-02-05T04:23:54.327Z,91.25
2019-02-05T04:27:08.835Z,91.51
2019-02-05T04:30:21.810Z,90.90
2019-02-05T04:33:23.632Z,91.20
2019-02-05T04:36:43.743Z,91.62
2019-02-05T04:40:05.518Z,92.54
2019-02-05T04:43:19.755Z,91.99
2019-02-05T04:46:03.901Z,92.66
2019-02-05T04:49:17.803Z,92.47
2019-02-05T04:52:28.827Z,92.08
2019-02-05T04:55:27.888Z,91.71
2019-02-05T04:58:32.869Z,91.56
2019-02-05T05:01:43.095Z,91.32
2019-02-05T05:04:44.255Z,91.14
2019-02-05T05:07:22.335Z,91.40
2019-02-05T05:09:56.446Z,91.33
2019-02-05T05:12:28.067Z,91.40
2019-02-05T05:14:58.269Z,91.24
2019-02-05T05:17:28.263Z,91.44
2019-02-05T05:19:58.245Z,91.47
2019-02-05T05:22:28.343Z,91.95
2019-02-05T05:24:59.865Z,91.89
2019-02-05T05:27:29.955Z,91.65
2019-02-05T05:30:00.348Z,91.93
2019-02-05T05:32:30.355Z,92.29
2019-02-05T05:35:00.359Z,92.55
2019-02-05T05:37:31.964Z,92.64
2019-02-05T05:40:01.978Z,92.75
2019-02-05T05:42:31.968Z,92.96
2019-02-05T05:45:02.481Z,92.29
2019-02-05T05:47:32.467Z,93.14
2019-02-05T05:50:03.389Z,92.92
2019-02-05T05:52:33.445Z,92.38
2019-02-05T05:55:03.541Z,92.84
2019-02-05T05:57:33.607Z,93.28
2019-02-05T06:00:04.093Z,93.75
2019-02-05T06:02:34.205Z,93.56
2019-02-05T06:05:06.497Z,93.43
2019-02-05T06:07:36.495Z,93.18
2019-02-05T06:10:07.408Z,93.19
2019-02-05T06:12:37.473Z,93.34
2019-02-05T06:15:08.885Z,93.25
2019-02-05T06:17:38.897Z,93.32
2019-02-05T06:20:11.935Z,93.94
2019-02-05T06:22:41.938Z,94.69
2019-02-05T06:25:12.437Z,93.93
2019-02-05T06:27:42.427Z,93.98
2019-02-05T06:30:13.787Z,94.09
2019-02-05T06:32:43.792Z,94.29
2019-02-05T06:35:14.174Z,94.53
2019-02-05T06:37:44.699Z,94.31
2019-02-05T06:40:16.105Z,94.64
2019-02-05T06:42:46.120Z,94.35
2019-02-05T06:45:16.160Z,94.79
2019-02-05T06:47:46.126Z,94.37
2019-02-05T06:50:16.223Z,94.32
2019-02-05T06:52:46.272Z,94.50
2019-02-05T06:55:16.537Z,93.71
2019-02-05T06:57:46.511Z,93.70
2019-02-05T07:00:21.192Z,93.74
2019-02-05T07:02:53.069Z,94.23
2019-02-05T07:05:23.031Z,94.18
2019-02-05T07:07:53.419Z,94.14
2019-02-05T07:10:23.544Z,94.27
2019-02-05T07:12:53.544Z,95.04
2019-02-05T07:15:23.582Z,94.74
2019-02-05T07:17:57.368Z,94.53
2019-02-05T07:20:27.395Z,95.05
2019-02-05T07:22:57.784Z,95.03
2019-02-05T07:25:27.827Z,95.05
2019-02-05T07:27:57.836Z,95.41
2019-02-05T07:30:27.981Z,95.37
2019-02-05T07:32:58.005Z,94.80
2019-02-05T07:35:27.998Z,95.09
2019-02-05T07:37:58.621Z,95.07
2019-02-05T07:40:28.636Z,95.34
2019-02-05T07:42:58.670Z,94.93
2019-02-05T07:45:28.667Z,94.17
2019-02-05T07:47:58.737Z,94.09
2019-02-05T07:50:28.921Z,93.88
2019-02-05T07:52:58.994Z,94.43
2019-02-05T07:55:29.345Z,94.12
2019-02-05T07:57:59.413Z,93.53
2019-02-05T08:00:29.567Z,93.66
2019-02-05T08:02:59.681Z,93.72
2019-02-05T08:05:31.440Z,93.89
2019-02-05T08:08:01.704Z,93.11
2019-02-05T08:10:31.862Z,94.18
2019-02-05T08:13:04.030Z,94.81
2019-02-05T08:15:34.405Z,93.81
2019-02-05T08:18:04.946Z,94.24
2019-02-05T08:20:34.946Z,94.28
2019-02-05T08:23:06.231Z,93.47
2019-02-05T08:25:36.235Z,94.33
2019-02-05T08:28:06.635Z,94.18
2019-02-05T08:30:39.707Z,94.34
2019-02-05T08:33:09.905Z,94.79
2019-02-05T08:35:39.917Z,94.24
2019-02-05T08:38:10.034Z,93.86
2019-02-05T08:40:40.055Z,94.31
2019-02-05T08:43:10.042Z,94.52
2019-02-05T08:45:40.605Z,94.55
2019-02-05T08:48:11.679Z,94.56
2019-02-05T08:50:42.059Z,94.61
2019-02-05T08:53:12.070Z,93.80
2019-02-05T08:55:42.092Z,94.45
2019-02-05T08:58:12.736Z,94.07
2019-02-05T09:00:42.954Z,94.69
2019-02-05T09:03:13.048Z,94.15
2019-02-05T09:05:43.061Z,94.08
2019-02-05T09:08:13.084Z,94.22
2019-02-05T09:10:43.103Z,94.02
2019-02-05T09:13:13.483Z,93.66
2019-02-05T09:15:43.460Z,93.67
2019-02-05T09:18:13.639Z,93.89
2019-02-05T09:20:43.688Z,93.59
2019-02-05T09:23:14.456Z,93.91
2019-02-05T09:25:44.584Z,94.07
2019-02-05T09:28:15.808Z,94.03
2019-02-05T09:30:45.815Z,93.70
2019-02-05T09:33:15.927Z,93.51
2019-02-05T09:35:46.099Z,93.71
2019-02-05T09:38:16.157Z,94.10
2019-02-05T09:40:46.282Z,93.73
2019-02-05T09:43:16.699Z,93.54
2019-02-05T09:45:46.733Z,93.51
2019-02-05T09:48:16.802Z,93.63
2019-02-05T09:50:46.811Z,93.64
2019-02-05T09:53:16.920Z,93.60
2019-02-05T09:55:46.980Z,93.56
2019-02-05T09:58:17.304Z,93.89
2019-02-05T10:00:47.319Z,93.95
2019-02-05T10:03:17.386Z,93.86
2019-02-05T10:05:47.431Z,94.12
2019-02-05T10:08:17.456Z,94.29
2019-02-05T10:10:47.494Z,94.05
2019-02-05T10:13:17.509Z,93.96
2019-02-05T10:15:47.609Z,94.05
2019-02-05T10:18:17.672Z,93.75
2019-02-05T10:20:47.756Z,93.68
2019-02-05T10:23:17.861Z,93.71
2019-02-05T10:25:47.930Z,93.61
2019-02-05T10:28:17.951Z,93.38
2019-02-05T10:30:48.170Z,93.21
2019-02-05T10:33:18.176Z,92.75
2019-02-05T10:35:48.234Z,92.74
2019-02-05T10:38:18.316Z,92.62
2019-02-05T10:40:48.415Z,92.17
2019-02-05T10:43:18.476Z,92.00
2019-02-05T10:45:48.672Z,91.52
2019-02-05T10:48:18.723Z,91.57
2019-02-05T10:50:48.732Z,91.24
2019-02-05T10:53:18.784Z,91.60
2019-02-05T10:55:48.806Z,91.61
2019-02-05T10:58:18.842Z,91.43
2019-02-05T11:00:49.242Z,91.11
2019-02-05T11:03:19.292Z,90.97
2019-02-05T11:05:49.312Z,90.76
2019-02-05T11:08:19.358Z,91.11
2019-02-05T11:10:49.358Z,91.40
2019-02-05T11:13:19.406Z,90.81
2019-02-05T11:15:49.799Z,91.09
2019-02-05T11:18:19.844Z,91.41
2019-02-05T11:20:49.917Z,91.37
2019-02-05T11:23:20.006Z,91.34
2019-02-05T11:25:50.010Z,91.24
2019-02-05T11:28:20.076Z,91.32
2019-02-05T11:30:50.098Z,91.13
2019-02-05T11:33:20.332Z,90.80
2019-02-05T11:35:50.752Z,90.80
2019-02-05T11:38:21.396Z,90.78
2019-02-05T11:40:51.547Z,90.61
2019-02-05T11:43:21.622Z,90.99
2019-02-05T11:45:51.654Z,91.21
2019-02-05T11:48:21.861Z,91.27
2019-02-05T11:50:51.944Z,91.41
2019-02-05T11:53:22.228Z,90.79
2019-02-05T11:55:52.263Z,91.16
2019-02-05T11:58:22.306Z,91.33
2019-02-05T12:01:09.504Z,91.16
2019-02-05T12:03:39.553Z,90.87
2019-02-05T12:06:09.690Z,90.92
2019-02-05T12:08:39.743Z,91.03
2019-02-05T12:11:09.747Z,91.29
2019-02-05T12:13:39.767Z,91.41
2019-02-05T12:16:09.759Z,91.49
2019-02-05T12:18:39.905Z,91.52
2019-02-05T12:21:09.913Z,91.07
2019-02-05T12:23:39.943Z,90.46
2019-02-05T12:26:09.947Z,90.83
2019-02-05T12:28:39.957Z,91.19
2019-02-05T12:31:10.467Z,91.07
2019-02-05T12:33:40.454Z,90.73
2019-02-05T12:36:10.493Z,90.73
2019-02-05T12:38:40.547Z,90.53
2019-02-05T12:41:10.562Z,90.49
2019-02-05T12:43:40.552Z,91.09
2019-02-05T12:46:10.973Z,91.22
2019-02-05T12:48:40.993Z,90.69
2019-02-05T12:51:11.095Z,91.08
2019-02-05T12:53:41.163Z,91.37
2019-02-05T12:56:11.353Z,91.58
2019-02-05T12:58:41.519Z,91.69
2019-02-05T13:01:11.831Z,91.47
2019-02-05T13:03:41.921Z,91.87
2019-02-05T13:06:12.077Z,91.99
2019-02-05T13:08:42.103Z,92.35
2019-02-05T13:11:12.129Z,93.13
2019-02-05T13:13:42.219Z,93.39
2019-02-05T13:16:12.269Z,93.72
2019-02-05T13:18:42.334Z,93.93
2019-02-05T13:21:12.387Z,94.01
2019-02-05T13:23:42.452Z,94.25
2019-02-05T13:26:12.714Z,94.69
2019-02-05T13:28:43.182Z,94.94
2019-02-05T13:31:13.244Z,94.74
2019-02-05T13:33:43.947Z,94.93
2019-02-05T13:36:14.143Z,94.49
2019-02-05T13:38:44.171Z,94.56
2019-02-05T13:41:14.395Z,94.25
2019-02-05T13:43:44.505Z,94.22
2019-02-05T13:46:14.559Z,94.13
2019-02-05T13:48:44.651Z,93.58
2019-02-05T13:51:14.781Z,93.84
2019-02-05T13:53:44.865Z,93.23
2019-02-05T13:56:15.186Z,93.06
2019-02-05T13:58:45.219Z,93.17
2019-02-05T14:01:20.126Z,92.98
2019-02-05T14:03:47.101Z,92.65
2019-02-05T14:06:17.159Z,93.09
2019-02-05T14:08:47.174Z,93.21
2019-02-05T14:11:17.239Z,93.35
2019-02-05T14:13:47.259Z,93.03
2019-02-05T14:16:17.361Z,93.23
2019-02-05T14:18:54.853Z,92.62
2019-02-05T14:21:19.091Z,92.93
2019-02-05T14:23:49.073Z,92.98
2019-02-05T14:26:19.331Z,92.86
2019-02-05T14:28:49.343Z,92.83
2019-02-05T14:31:29.979Z,92.67
2019-02-05T14:33:51.060Z,92.47
2019-02-05T14:36:21.101Z,92.45
2019-02-05T14:38:51.445Z,92.36
2019-02-05T14:41:21.495Z,92.61
2019-02-05T14:43:51.507Z,92.40
2019-02-05T14:46:21.609Z,91.93
2019-02-05T14:48:51.689Z,92.18
2019-02-05T14:51:21.703Z,91.81
2019-02-05T14:53:51.753Z,91.87
2019-02-05T14:56:21.755Z,91.96
2019-02-05T14:58:51.859Z,91.95
2019-02-05T15:01:21.867Z,91.34
2019-02-05T15:03:51.893Z,91.39
2019-02-05T15:06:22.196Z,91.53
2019-02-05T15:08:52.219Z,91.01
2019-02-05T15:11:22.249Z,90.94
2019-02-05T15:13:52.344Z,91.11
2019-02-05T15:16:22.447Z,90.98
2019-02-05T15:18:52.554Z,91.11
2019-02-05T15:21:22.593Z,91.48
2019-02-05T15:23:52.649Z,91.13
2019-02-05T15:26:22.673Z,91.47
2019-02-05T15:29:02.037Z,91.19
2019-02-05T15:31:32.094Z,91.74
2019-02-05T15:34:04.920Z,91.23
2019-02-05T15:36:37.088Z,91.13
2019-02-05T15:39:13.535Z,91.52
2019-02-05T15:41:43.677Z,91.64
2019-02-05T15:44:14.073Z,91.84
2019-02-05T15:46:44.147Z,91.68
2019-02-05T15:49:14.189Z,91.62
2019-02-05T15:51:44.260Z,91.20
2019-02-05T15:54:14.280Z,91.15
2019-02-05T15:56:44.354Z,91.22
2019-02-05T15:59:14.383Z,91.04
2019-02-05T16:01:44.443Z,91.63
2019-02-05T16:04:14.527Z,91.61
2019-02-05T16:06:44.544Z,91.71
2019-02-05T16:09:14.874Z,91.81
2019-02-05T16:11:45.334Z,91.75
2019-02-05T16:14:15.551Z,91.64
2019-02-05T16:16:45.690Z,91.77
2019-02-05T16:19:15.765Z,91.25
2019-02-05T16:21:45.826Z,91.28
2019-02-05T16:24:15.879Z,91.54
2019-02-05T16:26:46.277Z,91.23
2019-02-05T16:29:16.344Z,91.05
2019-02-05T16:31:46.371Z,91.17
2019-02-05T16:34:16.431Z,91.33
2019-02-05T16:36:48.558Z,90.87
2019-02-05T16:39:18.238Z,90.98
2019-02-05T16:41:48.436Z,91.22
2019-02-05T16:44:18.498Z,91.16
2019-02-05T16:46:48.512Z,90.97
2019-02-05T16:49:18.621Z,91.40
2019-02-05T16:51:48.729Z,91.77
2019-02-05T16:54:18.765Z,91.45
2019-02-05T16:56:48.793Z,91.38
2019-02-05T16:59:18.832Z,91.17
2019-02-05T17:01:48.950Z,91.46
2019-02-05T17:04:18.976Z,91.30
2019-02-05T17:06:49.015Z,90.79
2019-02-05T17:09:19.453Z,90.82
2019-02-05T17:11:49.491Z,91.80
2019-02-05T17:14:19.508Z,92.23
2019-02-05T17:16:49.583Z,91.85
2019-02-05T17:19:19.626Z,91.25
2019-02-05T17:21:49.694Z,91.34
2019-02-05T17:24:19.950Z,91.56
2019-02-05T17:26:50.066Z,91.53
2019-02-05T17:29:20.340Z,91.42
2019-02-05T17:31:50.438Z,91.41
2019-02-05T17:34:20.518Z,90.82
2019-02-05T17:36:51.284Z,91.30
2019-02-05T17:39:21.361Z,91.41
2019-02-05T17:41:51.397Z,91.08
2019-02-05T17:44:21.432Z,91.49
2019-02-05T17:46:51.458Z,92.08
2019-02-05T17:49:21.623Z,91.44
2019-02-05T17:51:51.980Z,91.29
2019-02-05T17:54:22.028Z,91.73
2019-02-05T17:56:52.058Z,91.98
2019-02-05T17:59:22.101Z,91.47
2019-02-05T18:01:52.130Z,91.05
2019-02-05T18:04:22.186Z,91.88
2019-02-05T18:06:52.214Z,91.39
2019-02-05T18:09:22.280Z,91.09
2019-02-05T18:11:52.320Z,90.99
2019-02-05T18:14:22.709Z,91.48
2019-02-05T18:16:52.841Z,91.67
2019-02-05T18:19:22.913Z,91.25
2019-02-05T18:21:53.054Z,91.92
2019-02-05T18:24:23.177Z,91.79
2019-02-05T18:26:53.362Z,91.93
2019-02-05T18:29:23.400Z,91.76
2019-02-05T18:31:53.466Z,91.92
2019-02-05T18:34:23.884Z,91.91
2019-02-05T18:36:54.786Z,92.37
2019-02-05T18:39:24.806Z,92.26
2019-02-05T18:41:54.859Z,91.85
2019-02-05T18:44:24.905Z,91.82
2019-02-05T18:46:55.059Z,91.83
2019-02-05T18:49:25.209Z,92.07
2019-02-05T18:51:55.345Z,91.75
2019-02-05T18:54:25.410Z,91.92
2019-02-05T18:57:08.305Z,91.69
2019-02-05T18:59:33.580Z,91.81
2019-02-05T19:02:03.652Z,91.38
2019-02-05T19:04:33.745Z,91.80
2019-02-05T19:07:05.562Z,91.67
2019-02-05T19:09:35.619Z,91.70
2019-02-05T19:12:05.713Z,91.90
2019-02-05T19:14:36.139Z,92.11
2019-02-05T19:17:06.195Z,91.56
2019-02-05T19:19:36.305Z,91.55
2019-02-05T19:22:06.375Z,92.20
2019-02-05T19:24:51.939Z,91.73
2019-02-05T19:27:22.094Z,91.93
2019-02-05T19:29:52.182Z,91.52
2019-02-05T19:32:26.358Z,91.82
2019-02-05T19:34:56.434Z,91.95
2019-02-05T19:37:26.556Z,91.49
2019-02-05T19:39:56.912Z,91.91
2019-02-05T19:42:26.958Z,91.94
2019-02-05T19:45:04.357Z,91.86
2019-02-05T19:47:34.886Z,91.69
2019-02-05T19:50:06.159Z,91.47
2019-02-05T19:52:36.323Z,91.00
2019-02-05T19:55:06.485Z,90.75
2019-02-05T19:57:36.531Z,90.99
2019-02-05T20:00:07.353Z,90.88
2019-02-05T20:02:37.365Z,91.11
2019-02-05T20:05:08.065Z,91.26
2019-02-05T20:07:38.118Z,91.40
2019-02-05T20:10:09.226Z,91.37
2019-02-05T20:12:39.241Z,91.04
2019-02-05T20:15:10.155Z,91.13
2019-02-05T20:17:40.729Z,90.75
2019-02-05T20:20:13.583Z,91.04
2019-02-05T20:22:43.746Z,91.06
2019-02-05T20:25:14.587Z,91.24
2019-02-05T20:27:44.717Z,91.14
2019-02-05T20:30:16.177Z,91.87
2019-02-05T20:32:46.202Z,91.61
2019-02-05T20:35:16.303Z,91.03
2019-02-05T20:37:46.330Z,90.72
2019-02-05T20:40:17.375Z,90.87
2019-02-05T20:42:47.429Z,91.13
2019-02-05T20:45:17.521Z,90.97
2019-02-05T20:47:47.596Z,91.47
2019-02-05T20:50:17.690Z,91.34
2019-02-05T20:55:39.352Z,91.73
2019-02-05T20:58:09.401Z,92.28
2019-02-05T21:00:39.503Z,92.63
2019-02-05T21:03:09.586Z,92.10
2019-02-05T21:05:40.555Z,92.35
2019-02-05T21:08:10.617Z,92.59
2019-02-05T21:10:40.745Z,92.57
2019-02-05T21:13:10.794Z,93.24
2019-02-05T21:15:40.897Z,93.86
2019-02-05T21:18:11.003Z,93.45
2019-02-05T21:20:41.294Z,92.91
2019-02-05T21:23:11.325Z,94.00
2019-02-05T21:25:50.971Z,94.17
2019-02-05T21:28:21.008Z,94.06
2019-02-05T21:30:51.030Z,93.56
2019-02-05T21:33:21.531Z,93.64
2019-02-05T21:35:51.561Z,93.20
2019-02-05T21:38:21.594Z,92.99
2019-02-05T21:40:51.612Z,92.99
2019-02-05T21:43:21.639Z,93.28
2019-02-05T21:45:51.636Z,93.81
2019-02-05T21:48:22.189Z,94.15
2019-02-05T21:50:52.208Z,93.59
2019-02-05T21:53:22.262Z,93.34
2019-02-05T21:55:52.242Z,93.29
2019-02-05T21:58:22.356Z,93.44
2019-02-05T22:00:52.514Z,92.98
2019-02-05T22:03:23.065Z,93.20
2019-02-05T22:05:53.113Z,93.54
2019-02-05T22:08:23.241Z,93.68
2019-02-05T22:10:53.318Z,93.86
2019-02-05T22:13:23.342Z,94.24
2019-02-05T22:15:53.380Z,93.73
2019-02-05T22:18:23.624Z,93.47
2019-02-05T22:20:53.679Z,93.05
2019-02-05T22:23:23.954Z,92.99
2019-02-05T22:25:54.008Z,92.94
2019-02-05T22:28:24.014Z,92.60
2019-02-05T22:30:54.602Z,92.54
2019-02-05T22:33:24.592Z,92.46
2019-02-05T22:35:56.145Z,92.57
2019-02-05T22:38:26.128Z,92.36
2019-02-05T22:40:56.437Z,92.58
2019-02-05T22:43:26.428Z,92.61
2019-02-05T22:45:56.474Z,92.63
2019-02-05T22:48:26.681Z,92.64
2019-02-05T22:50:56.756Z,92.64
2019-02-05T22:53:27.168Z,92.61
2019-02-05T22:55:57.193Z,92.45
2019-02-05T22:58:27.300Z,92.69
2019-02-05T23:01:24.290Z,92.74
2019-02-05T23:04:14.346Z,92.69
2019-02-05T23:07:02.696Z,92.70
2019-02-05T23:10:16.162Z,93.49
2019-02-05T23:12:58.435Z,94.00
2019-02-05T23:15:29.237Z,93.59
2019-02-05T23:17:59.369Z,93.67
2019-02-05T23:20:29.698Z,93.27
2019-02-05T23:23:01.729Z,93.20
2019-02-05T23:25:31.906Z,92.94
2019-02-05T23:28:06.114Z,93.30
2019-02-05T23:30:36.130Z,93.47
2019-02-05T23:33:06.142Z,92.35
2019-02-05T23:35:36.116Z,92.05
2019-02-05T23:38:06.126Z,92.24
2019-02-05T23:40:36.173Z,92.26
2019-02-05T23:43:06.555Z,92.73
2019-02-05T23:45:36.537Z,92.72
2019-02-05T23:48:07.118Z,92.47
2019-02-05T23:50:37.086Z,92.49
2019-02-05T23:53:07.179Z,92.86
2019-02-05T23:55:37.238Z,92.76
2019-02-05T23:58:07.201Z,92.78
